sensor_id;sensor_type;location;lat;lon;timestamp;pressure;altitude;pressure_sealevel;temperature;humidity
74627;BME280;63132;52.268;5.192;2022-11-20T00:01:07;101289.09;;;-4.50;96.33
74627;BME280;63132;52.268;5.192;2022-11-20T00:03:33;101286.88;;;-4.48;97.76
74627;BME280;63132;52.268;5.192;2022-11-20T00:06:06;101284.53;;;-4.73;96.63
74627;BME280;63132;52.268;5.192;2022-11-20T00:08:31;101299.00;;;-4.64;98.00
74627;BME280;63132;52.268;5.192;2022-11-20T00:10:57;101292.38;;;-4.53;97.92
74627;BME280;63132;52.268;5.192;2022-11-20T00:13:22;101292.53;;;-4.44;97.87
74627;BME280;63132;52.268;5.192;2022-11-20T00:15:48;101293.41;;;-4.49;98.36
74627;BME280;63132;52.268;5.192;2022-11-20T00:18:13;101295.25;;;-4.44;98.33
74627;BME280;63132;52.268;5.192;2022-11-20T00:20:39;101297.94;;;-4.44;98.14
74627;BME280;63132;52.268;5.192;2022-11-20T00:23:04;101304.28;;;-4.54;97.42
74627;BME280;63132;52.268;5.192;2022-11-20T00:25:31;101285.13;;;-4.76;96.94
74627;BME280;63132;52.268;5.192;2022-11-20T00:27:56;101288.03;;;-4.72;98.44
74627;BME280;63132;52.268;5.192;2022-11-20T00:30:21;101286.97;;;-4.53;97.85
74627;BME280;63132;52.268;5.192;2022-11-20T00:32:47;101289.16;;;-4.55;98.11
74627;BME280;63132;52.268;5.192;2022-11-20T00:35:12;101291.41;;;-4.62;98.25
74627;BME280;63132;52.268;5.192;2022-11-20T00:37:37;101289.28;;;-4.65;97.88
74627;BME280;63132;52.268;5.192;2022-11-20T00:40:03;101289.81;;;-4.63;98.32
74627;BME280;63132;52.268;5.192;2022-11-20T00:42:29;101290.53;;;-4.57;98.35
74627;BME280;63132;52.268;5.192;2022-11-20T00:44:54;101289.22;;;-4.60;97.68
74627;BME280;63132;52.268;5.192;2022-11-20T00:47:20;101285.38;;;-4.54;97.85
74627;BME280;63132;52.268;5.192;2022-11-20T00:49:45;101282.59;;;-4.67;97.56
74627;BME280;63132;52.268;5.192;2022-11-20T00:52:10;101278.38;;;-4.79;97.30
74627;BME280;63132;52.268;5.192;2022-11-20T00:54:36;101275.47;;;-4.82;97.54
74627;BME280;63132;52.268;5.192;2022-11-20T00:57:01;101272.78;;;-4.82;97.82
74627;BME280;63132;52.268;5.192;2022-11-20T00:59:27;101266.22;;;-4.76;97.94
74627;BME280;63132;52.268;5.192;2022-11-20T01:01:53;101272.31;;;-4.89;97.48
74627;BME280;63132;52.268;5.192;2022-11-20T01:04:18;101270.72;;;-4.90;98.15
74627;BME280;63132;52.268;5.192;2022-11-20T01:06:43;101274.09;;;-4.80;98.74
74627;BME280;63132;52.268;5.192;2022-11-20T01:09:13;101271.63;;;-4.76;98.77
74627;BME280;63132;52.268;5.192;2022-11-20T01:11:42;101267.03;;;-4.76;98.67
74627;BME280;63132;52.268;5.192;2022-11-20T01:14:15;101264.06;;;-4.79;98.26
74627;BME280;63132;52.268;5.192;2022-11-20T01:16:47;101263.66;;;-4.67;98.56
74627;BME280;63132;52.268;5.192;2022-11-20T01:19:22;101256.41;;;-4.72;98.07
74627;BME280;63132;52.268;5.192;2022-11-20T01:21:50;101257.06;;;-4.80;97.16
74627;BME280;63132;52.268;5.192;2022-11-20T01:24:17;101259.19;;;-5.20;96.90
74627;BME280;63132;52.268;5.192;2022-11-20T01:26:48;101256.25;;;-5.23;97.74
74627;BME280;63132;52.268;5.192;2022-11-20T01:29:22;101261.63;;;-5.23;98.45
74627;BME280;63132;52.268;5.192;2022-11-20T01:31:48;101261.88;;;-5.20;98.45
74627;BME280;63132;52.268;5.192;2022-11-20T01:34:17;101267.84;;;-4.99;98.73
74627;BME280;63132;52.268;5.192;2022-11-20T01:36:43;101259.91;;;-4.90;98.70
74627;BME280;63132;52.268;5.192;2022-11-20T01:39:15;101253.72;;;-4.91;98.52
74627;BME280;63132;52.268;5.192;2022-11-20T01:41:40;101260.63;;;-4.85;97.97
74627;BME280;63132;52.268;5.192;2022-11-20T01:44:51;101254.97;;;-4.83;97.44
74627;BME280;63132;52.268;5.192;2022-11-20T01:50:15;101243.25;;;-4.97;97.73
74627;BME280;63132;52.268;5.192;2022-11-20T01:52:55;101237.91;;;-5.03;97.67
74627;BME280;63132;52.268;5.192;2022-11-20T01:55:33;101252.25;;;-5.07;97.08
74627;BME280;63132;52.268;5.192;2022-11-20T01:58:00;101252.50;;;-5.04;97.49
74627;BME280;63132;52.268;5.192;2022-11-20T02:00:27;101241.47;;;-5.07;98.05
74627;BME280;63132;52.268;5.192;2022-11-20T02:03:02;101232.22;;;-5.01;97.42
74627;BME280;63132;52.268;5.192;2022-11-20T02:05:35;101230.44;;;-5.11;97.47
74627;BME280;63132;52.268;5.192;2022-11-20T02:08:05;101236.59;;;-5.29;97.30
74627;BME280;63132;52.268;5.192;2022-11-20T02:10:30;101235.84;;;-5.11;97.33
74627;BME280;63132;52.268;5.192;2022-11-20T02:12:57;101234.47;;;-5.08;96.72
74627;BME280;63132;52.268;5.192;2022-11-20T02:15:41;101241.25;;;-5.11;97.05
74627;BME280;63132;52.268;5.192;2022-11-20T02:18:07;101234.47;;;-5.32;96.97
74627;BME280;63132;52.268;5.192;2022-11-20T02:20:34;101233.47;;;-5.36;97.07
74627;BME280;63132;52.268;5.192;2022-11-20T02:23:05;101228.06;;;-5.36;96.93
74627;BME280;63132;52.268;5.192;2022-11-20T02:25:34;101228.28;;;-5.57;96.47
74627;BME280;63132;52.268;5.192;2022-11-20T02:28:01;101219.88;;;-5.79;96.54
74627;BME280;63132;52.268;5.192;2022-11-20T02:30:27;101220.88;;;-5.75;97.87
74627;BME280;63132;52.268;5.192;2022-11-20T02:32:52;101229.16;;;-5.66;98.43
74627;BME280;63132;52.268;5.192;2022-11-20T02:37:43;101223.63;;;-5.27;97.80
74627;BME280;63132;52.268;5.192;2022-11-20T02:40:10;101219.44;;;-5.38;97.09
74627;BME280;63132;52.268;5.192;2022-11-20T02:42:37;101224.13;;;-5.49;96.82
74627;BME280;63132;52.268;5.192;2022-11-20T02:45:03;101221.84;;;-5.37;96.46
74627;BME280;63132;52.268;5.192;2022-11-20T02:47:29;101221.84;;;-5.37;96.63
74627;BME280;63132;52.268;5.192;2022-11-20T02:49:54;101212.41;;;-5.39;96.75
74627;BME280;63132;52.268;5.192;2022-11-20T02:52:20;101210.75;;;-5.59;96.28
74627;BME280;63132;52.268;5.192;2022-11-20T02:54:45;101210.53;;;-5.63;96.36
74627;BME280;63132;52.268;5.192;2022-11-20T02:57:11;101208.75;;;-5.48;97.16
74627;BME280;63132;52.268;5.192;2022-11-20T02:59:36;101208.97;;;-5.45;96.50
74627;BME280;63132;52.268;5.192;2022-11-20T03:02:01;101209.25;;;-5.22;96.24
74627;BME280;63132;52.268;5.192;2022-11-20T03:04:27;101209.44;;;-5.38;96.21
74627;BME280;63132;52.268;5.192;2022-11-20T03:06:52;101208.41;;;-5.18;95.74
74627;BME280;63132;52.268;5.192;2022-11-20T03:09:17;101199.69;;;-5.34;95.30
74627;BME280;63132;52.268;5.192;2022-11-20T03:11:43;101187.72;;;-5.51;95.51
74627;BME280;63132;52.268;5.192;2022-11-20T03:14:08;101183.94;;;-5.98;95.39
74627;BME280;63132;52.268;5.192;2022-11-20T03:16:34;101183.94;;;-5.98;96.60
74627;BME280;63132;52.268;5.192;2022-11-20T03:18:59;101188.91;;;-5.87;97.42
74627;BME280;63132;52.268;5.192;2022-11-20T03:21:25;101179.75;;;-5.86;97.41
74627;BME280;63132;52.268;5.192;2022-11-20T03:23:50;101178.03;;;-6.00;96.11
74627;BME280;63132;52.268;5.192;2022-11-20T03:26:16;101180.06;;;-6.16;96.84
74627;BME280;63132;52.268;5.192;2022-11-20T03:28:47;101182.56;;;-5.96;97.38
74627;BME280;63132;52.268;5.192;2022-11-20T03:31:13;101179.00;;;-5.91;96.84
74627;BME280;63132;52.268;5.192;2022-11-20T03:33:40;101177.22;;;-5.77;97.36
74627;BME280;63132;52.268;5.192;2022-11-20T03:36:08;101171.81;;;-5.77;97.60
74627;BME280;63132;52.268;5.192;2022-11-20T03:38:34;101179.16;;;-5.82;97.21
74627;BME280;63132;52.268;5.192;2022-11-20T03:41:05;101179.91;;;-5.77;97.43
74627;BME280;63132;52.268;5.192;2022-11-20T03:43:32;101180.38;;;-5.94;96.25
74627;BME280;63132;52.268;5.192;2022-11-20T03:45:58;101181.19;;;-5.93;96.79
74627;BME280;63132;52.268;5.192;2022-11-20T03:48:24;101172.44;;;-5.85;97.22
74627;BME280;63132;52.268;5.192;2022-11-20T03:50:50;101183.44;;;-5.52;96.18
74627;BME280;63132;52.268;5.192;2022-11-20T03:53:16;101176.53;;;-5.64;96.07
74627;BME280;63132;52.268;5.192;2022-11-20T03:55:41;101169.13;;;-5.77;96.12
74627;BME280;63132;52.268;5.192;2022-11-20T03:58:07;101172.28;;;-5.70;96.44
74627;BME280;63132;52.268;5.192;2022-11-20T04:00:33;101167.28;;;-5.81;95.83
74627;BME280;63132;52.268;5.192;2022-11-20T04:03:00;101159.97;;;-6.00;96.54
74627;BME280;63132;52.268;5.192;2022-11-20T04:05:25;101161.03;;;-5.77;95.98
74627;BME280;63132;52.268;5.192;2022-11-20T04:07:51;101162.38;;;-5.50;95.60
74627;BME280;63132;52.268;5.192;2022-11-20T04:10:16;101152.81;;;-5.67;95.03
74627;BME280;63132;52.268;5.192;2022-11-20T04:12:42;101148.22;;;-5.90;96.15
74627;BME280;63132;52.268;5.192;2022-11-20T04:15:08;101143.78;;;-6.00;96.30
74627;BME280;63132;52.268;5.192;2022-11-20T04:17:34;101149.16;;;-6.00;96.33
74627;BME280;63132;52.268;5.192;2022-11-20T04:19:59;101146.28;;;-6.08;96.63
74627;BME280;63132;52.268;5.192;2022-11-20T04:22:24;101147.88;;;-5.83;96.54
74627;BME280;63132;52.268;5.192;2022-11-20T04:24:50;101147.88;;;-5.83;96.28
74627;BME280;63132;52.268;5.192;2022-11-20T04:27:15;101142.16;;;-5.77;96.00
74627;BME280;63132;52.268;5.192;2022-11-20T04:29:40;101141.31;;;-5.96;96.21
74627;BME280;63132;52.268;5.192;2022-11-20T04:32:06;101132.22;;;-6.05;97.03
74627;BME280;63132;52.268;5.192;2022-11-20T04:34:31;101139.22;;;-6.04;97.34
74627;BME280;63132;52.268;5.192;2022-11-20T04:36:57;101132.75;;;-6.03;97.92
74627;BME280;63132;52.268;5.192;2022-11-20T04:39:22;101131.91;;;-5.99;97.39
74627;BME280;63132;52.268;5.192;2022-11-20T04:41:48;101131.50;;;-5.87;96.70
74627;BME280;63132;52.268;5.192;2022-11-20T04:44:13;101133.09;;;-5.86;97.32
74627;BME280;63132;52.268;5.192;2022-11-20T04:46:42;101130.84;;;-5.79;96.49
74627;BME280;63132;52.268;5.192;2022-11-20T04:49:12;101127.56;;;-5.76;96.49
74627;BME280;63132;52.268;5.192;2022-11-20T04:51:38;101131.31;;;-5.72;95.54
74627;BME280;63132;52.268;5.192;2022-11-20T04:54:03;101136.97;;;-5.92;95.78
74627;BME280;63132;52.268;5.192;2022-11-20T04:56:29;101126.56;;;-6.04;96.12
74627;BME280;63132;52.268;5.192;2022-11-20T04:58:54;101119.84;;;-6.06;96.73
74627;BME280;63132;52.268;5.192;2022-11-20T05:01:21;101126.81;;;-6.00;97.07
74627;BME280;63132;52.268;5.192;2022-11-20T05:03:48;101123.75;;;-6.18;96.07
74627;BME280;63132;52.268;5.192;2022-11-20T05:06:15;101119.97;;;-6.17;97.15
74627;BME280;63132;52.268;5.192;2022-11-20T05:08:42;101129.38;;;-6.14;97.00
74627;BME280;63132;52.268;5.192;2022-11-20T05:11:09;101124.94;;;-6.05;96.92
74627;BME280;63132;52.268;5.192;2022-11-20T05:13:36;101119.81;;;-6.01;96.79
74627;BME280;63132;52.268;5.192;2022-11-20T05:16:07;101105.09;;;-5.90;97.39
74627;BME280;63132;52.268;5.192;2022-11-20T05:18:33;101096.84;;;-5.99;96.63
74627;BME280;63132;52.268;5.192;2022-11-20T05:20:58;101099.63;;;-5.85;96.99
74627;BME280;63132;52.268;5.192;2022-11-20T05:23:25;101100.50;;;-5.90;96.83
74627;BME280;63132;52.268;5.192;2022-11-20T05:25:55;101098.13;;;-5.91;97.40
74627;BME280;63132;52.268;5.192;2022-11-20T05:28:21;101097.09;;;-5.95;97.08
74627;BME280;63132;52.268;5.192;2022-11-20T05:30:48;101096.56;;;-5.97;97.89
74627;BME280;63132;52.268;5.192;2022-11-20T05:33:14;101096.84;;;-5.99;97.29
74627;BME280;63132;52.268;5.192;2022-11-20T05:35:39;101090.53;;;-6.13;97.37
74627;BME280;63132;52.268;5.192;2022-11-20T05:38:05;101095.59;;;-6.06;96.99
74627;BME280;63132;52.268;5.192;2022-11-20T05:40:30;101087.50;;;-6.06;97.38
74627;BME280;63132;52.268;5.192;2022-11-20T05:42:56;101094.41;;;-5.95;97.77
74627;BME280;63132;52.268;5.192;2022-11-20T05:45:21;101095.91;;;-5.65;96.70
74627;BME280;63132;52.268;5.192;2022-11-20T05:47:46;101091.97;;;-5.73;96.73
74627;BME280;63132;52.268;5.192;2022-11-20T05:50:12;101095.47;;;-5.96;96.90
74627;BME280;63132;52.268;5.192;2022-11-20T05:52:38;101106.53;;;-5.98;96.72
74627;BME280;63132;52.268;5.192;2022-11-20T05:55:03;101124.16;;;-6.05;97.29
74627;BME280;63132;52.268;5.192;2022-11-20T05:57:30;101120.25;;;-5.70;95.94
74627;BME280;63132;52.268;5.192;2022-11-20T05:59:56;101113.13;;;-5.85;96.52
74627;BME280;63132;52.268;5.192;2022-11-20T06:02:21;101123.56;;;-5.78;97.17
74627;BME280;63132;52.268;5.192;2022-11-20T06:04:46;101119.56;;;-5.81;95.98
74627;BME280;63132;52.268;5.192;2022-11-20T06:07:12;101128.25;;;-5.89;95.69
74627;BME280;63132;52.268;5.192;2022-11-20T06:09:37;101124.66;;;-6.03;96.25
74627;BME280;63132;52.268;5.192;2022-11-20T06:12:03;101119.03;;;-5.83;96.44
74627;BME280;63132;52.268;5.192;2022-11-20T06:14:28;101124.16;;;-6.05;95.67
74627;BME280;63132;52.268;5.192;2022-11-20T06:16:53;101118.38;;;-5.94;97.07
74627;BME280;63132;52.268;5.192;2022-11-20T06:19:19;101110.59;;;-5.95;96.96
74627;BME280;63132;52.268;5.192;2022-11-20T06:21:44;101115.44;;;-5.97;96.48
74627;BME280;63132;52.268;5.192;2022-11-20T06:24:10;101121.00;;;-5.65;96.51
74627;BME280;63132;52.268;5.192;2022-11-20T06:26:36;101115.13;;;-5.72;95.66
74627;BME280;63132;52.268;5.192;2022-11-20T06:29:01;101105.66;;;-5.69;95.63
74627;BME280;63132;52.268;5.192;2022-11-20T06:31:27;101111.66;;;-5.96;95.75
74627;BME280;63132;52.268;5.192;2022-11-20T06:33:52;101121.22;;;-6.09;96.08
74627;BME280;63132;52.268;5.192;2022-11-20T06:36:19;101125.09;;;-5.91;97.04
74627;BME280;63132;52.268;5.192;2022-11-20T06:38:45;101115.09;;;-5.91;96.62
74627;BME280;63132;52.268;5.192;2022-11-20T06:41:17;101117.22;;;-5.88;96.48
74627;BME280;63132;52.268;5.192;2022-11-20T06:43:43;101123.78;;;-5.94;96.97
74627;BME280;63132;52.268;5.192;2022-11-20T06:46:10;101114.41;;;-6.01;96.44
74627;BME280;63132;52.268;5.192;2022-11-20T06:48:36;101110.47;;;-5.90;96.70
74627;BME280;63132;52.268;5.192;2022-11-20T06:51:06;101112.88;;;-5.89;96.58
74627;BME280;63132;52.268;5.192;2022-11-20T06:53:31;101111.53;;;-5.86;96.61
74627;BME280;63132;52.268;5.192;2022-11-20T06:55:57;101101.75;;;-5.82;97.19
74627;BME280;63132;52.268;5.192;2022-11-20T06:58:23;101099.84;;;-5.81;97.32
74627;BME280;63132;52.268;5.192;2022-11-20T07:00:51;101092.06;;;-5.83;96.80
74627;BME280;63132;52.268;5.192;2022-11-20T07:03:16;101085.38;;;-5.67;96.78
74627;BME280;63132;52.268;5.192;2022-11-20T07:05:41;101088.91;;;-5.90;96.78
74627;BME280;63132;52.268;5.192;2022-11-20T07:08:07;101092.84;;;-5.82;97.24
74627;BME280;63132;52.268;5.192;2022-11-20T07:10:33;101092.59;;;-5.81;96.82
74627;BME280;63132;52.268;5.192;2022-11-20T07:12:59;101090.06;;;-5.72;96.54
74627;BME280;63132;52.268;5.192;2022-11-20T07:15:25;101090.13;;;-5.77;96.92
74627;BME280;63132;52.268;5.192;2022-11-20T07:17:51;101088.56;;;-5.83;97.66
74627;BME280;63132;52.268;5.192;2022-11-20T07:20:16;101083.97;;;-5.83;98.34
74627;BME280;63132;52.268;5.192;2022-11-20T07:22:42;101079.66;;;-5.84;97.79
74627;BME280;63132;52.268;5.192;2022-11-20T07:25:08;101089.53;;;-5.74;98.40
74627;BME280;63132;52.268;5.192;2022-11-20T07:27:34;101082.03;;;-5.77;97.21
74627;BME280;63132;52.268;5.192;2022-11-20T07:30:00;101080.75;;;-5.61;97.95
74627;BME280;63132;52.268;5.192;2022-11-20T07:32:25;101076.38;;;-5.38;97.60
74627;BME280;63132;52.268;5.192;2022-11-20T07:34:51;101075.09;;;-5.41;97.44
74627;BME280;63132;52.268;5.192;2022-11-20T07:37:16;101076.94;;;-5.36;97.67
74627;BME280;63132;52.268;5.192;2022-11-20T07:39:42;101077.22;;;-5.19;98.55
74627;BME280;63132;52.268;5.192;2022-11-20T07:42:08;101079.25;;;-5.11;98.33
74627;BME280;63132;52.268;5.192;2022-11-20T07:44:34;101082.75;;;-4.91;97.81
74627;BME280;63132;52.268;5.192;2022-11-20T07:47:00;101084.94;;;-4.93;97.48
74627;BME280;63132;52.268;5.192;2022-11-20T07:49:25;101094.56;;;-4.87;97.54
74627;BME280;63132;52.268;5.192;2022-11-20T07:51:51;101089.81;;;-4.77;96.88
74627;BME280;63132;52.268;5.192;2022-11-20T07:54:20;101079.31;;;-4.46;96.65
74627;BME280;63132;52.268;5.192;2022-11-20T07:56:47;101083.53;;;-4.39;96.59
74627;BME280;63132;52.268;5.192;2022-11-20T07:59:12;101083.69;;;-4.50;96.29
74627;BME280;63132;52.268;5.192;2022-11-20T08:01:38;101078.13;;;-4.39;96.76
74627;BME280;63132;52.268;5.192;2022-11-20T08:04:04;101068.59;;;-4.37;96.79
74627;BME280;63132;52.268;5.192;2022-11-20T08:06:29;101063.88;;;-4.45;96.67
74627;BME280;63132;52.268;5.192;2022-11-20T08:08:55;101067.88;;;-4.42;96.93
74627;BME280;63132;52.268;5.192;2022-11-20T08:11:20;101073.75;;;-4.22;96.75
74627;BME280;63132;52.268;5.192;2022-11-20T08:14:04;101069.66;;;-3.92;97.59
74627;BME280;63132;52.268;5.192;2022-11-20T08:16:48;101060.69;;;-3.51;96.68
74627;BME280;63132;52.268;5.192;2022-11-20T08:19:16;101062.66;;;-3.79;95.21
74627;BME280;63132;52.268;5.192;2022-11-20T08:21:41;101053.13;;;-3.76;96.22
74627;BME280;63132;52.268;5.192;2022-11-20T08:24:08;101048.41;;;-3.84;95.99
74627;BME280;63132;52.268;5.192;2022-11-20T08:26:34;101054.31;;;-3.69;96.76
74627;BME280;63132;52.268;5.192;2022-11-20T08:29:01;101058.56;;;-3.26;96.05
74627;BME280;63132;52.268;5.192;2022-11-20T08:31:26;101057.66;;;-2.99;95.21
74627;BME280;63132;52.268;5.192;2022-11-20T08:33:52;101058.53;;;-2.90;94.85
74627;BME280;63132;52.268;5.192;2022-11-20T08:36:19;101055.03;;;-3.27;94.25
74627;BME280;63132;52.268;5.192;2022-11-20T08:38:51;101058.25;;;-3.25;95.81
74627;BME280;63132;52.268;5.192;2022-11-20T08:41:17;101059.84;;;-3.24;96.08
74627;BME280;63132;52.268;5.192;2022-11-20T08:44:10;101060.78;;;-2.84;96.19
74627;BME280;63132;52.268;5.192;2022-11-20T08:46:36;101061.72;;;-3.11;94.83
74627;BME280;63132;52.268;5.192;2022-11-20T08:49:07;101062.66;;;-2.93;94.47
74627;BME280;63132;52.268;5.192;2022-11-20T08:51:33;101062.56;;;-2.57;95.02
74627;BME280;63132;52.268;5.192;2022-11-20T08:53:59;101059.41;;;-2.28;95.41
74627;BME280;63132;52.268;5.192;2022-11-20T08:56:24;101059.56;;;-2.55;93.13
74627;BME280;63132;52.268;5.192;2022-11-20T08:58:50;101059.47;;;-2.10;91.88
74627;BME280;63132;52.268;5.192;2022-11-20T09:01:20;101059.31;;;-2.14;91.52
74627;BME280;63132;52.268;5.192;2022-11-20T09:03:45;101060.91;;;-2.44;92.02
74627;BME280;63132;52.268;5.192;2022-11-20T09:06:11;101059.97;;;-2.08;94.60
74627;BME280;63132;52.268;5.192;2022-11-20T09:08:37;101052.28;;;-2.15;92.91
74627;BME280;63132;52.268;5.192;2022-11-20T09:11:03;101054.69;;;-2.13;93.38
74627;BME280;63132;52.268;5.192;2022-11-20T09:13:29;101049.00;;;-1.95;94.61
74627;BME280;63132;52.268;5.192;2022-11-20T09:15:56;101047.84;;;-2.02;92.01
74627;BME280;63132;52.268;5.192;2022-11-20T09:18:23;101037.38;;;-1.86;92.78
74627;BME280;63132;52.268;5.192;2022-11-20T09:20:49;101036.97;;;-1.54;90.48
74627;BME280;63132;52.268;5.192;2022-11-20T09:23:15;101020.50;;;-1.66;90.36
74627;BME280;63132;52.268;5.192;2022-11-20T09:25:41;101021.06;;;-1.86;90.92
74627;BME280;63132;52.268;5.192;2022-11-20T09:28:07;101014.28;;;-1.58;90.95
74627;BME280;63132;52.268;5.192;2022-11-20T09:30:32;101015.88;;;-1.65;89.94
74627;BME280;63132;52.268;5.192;2022-11-20T09:32:58;101002.75;;;-1.81;90.10
74627;BME280;63132;52.268;5.192;2022-11-20T09:35:23;101001.81;;;-1.68;92.05
74627;BME280;63132;52.268;5.192;2022-11-20T09:37:49;100983.00;;;-1.47;89.53
74627;BME280;63132;52.268;5.192;2022-11-20T09:40:23;100992.44;;;-1.18;89.33
74627;BME280;63132;52.268;5.192;2022-11-20T09:43:21;100998.28;;;-0.73;86.86
74627;BME280;63132;52.268;5.192;2022-11-20T09:51:39;100996.56;;;-1.29;89.34
74627;BME280;63132;52.268;5.192;2022-11-20T09:54:19;100983.97;;;-1.34;88.86
74627;BME280;63132;52.268;5.192;2022-11-20T09:56:50;100983.59;;;-0.89;87.31
74627;BME280;63132;52.268;5.192;2022-11-20T10:02:03;100979.47;;;-0.95;88.99
74627;BME280;63132;52.268;5.192;2022-11-20T10:04:32;100974.38;;;-0.50;88.59
74627;BME280;63132;52.268;5.192;2022-11-20T10:07:22;100967.94;;;-0.92;87.91
74627;BME280;63132;52.268;5.192;2022-11-20T10:09:53;100967.56;;;-0.82;91.84
74627;BME280;63132;52.268;5.192;2022-11-20T10:18:26;100963.91;;;-0.77;89.54
74627;BME280;63132;52.268;5.192;2022-11-20T10:24:35;100955.59;;;-0.81;89.96
74627;BME280;63132;52.268;5.192;2022-11-20T10:29:45;100942.25;;;-0.57;89.62
74627;BME280;63132;52.268;5.192;2022-11-20T10:32:19;100927.44;;;-0.38;90.34
74627;BME280;63132;52.268;5.192;2022-11-20T10:34:58;100921.06;;;-0.13;89.20
74627;BME280;63132;52.268;5.192;2022-11-20T10:37:27;100911.09;;;-0.09;87.94
74627;BME280;63132;52.268;5.192;2022-11-20T10:42:47;100900.97;;;0.01;88.11
74627;BME280;63132;52.268;5.192;2022-11-20T10:45:35;100903.50;;;0.06;87.04
74627;BME280;63132;52.268;5.192;2022-11-20T10:48:14;100905.03;;;0.15;87.29
74627;BME280;63132;52.268;5.192;2022-11-20T10:53:54;100904.56;;;0.34;86.10
74627;BME280;63132;52.268;5.192;2022-11-20T11:01:57;100885.41;;;0.43;86.39
74627;BME280;63132;52.268;5.192;2022-11-20T11:04:45;100883.75;;;0.30;87.96
74627;BME280;63132;52.268;5.192;2022-11-20T11:07:19;100878.63;;;0.49;88.26
74627;BME280;63132;52.268;5.192;2022-11-20T11:09:52;100871.13;;;0.79;88.62
74627;BME280;63132;52.268;5.192;2022-11-20T11:12:19;100870.53;;;0.61;85.93
74627;BME280;63132;52.268;5.192;2022-11-20T11:14:53;100861.69;;;0.43;87.45
74627;BME280;63132;52.268;5.192;2022-11-20T11:17:30;100860.41;;;0.62;87.56
74627;BME280;63132;52.268;5.192;2022-11-20T11:22:57;100847.94;;;0.61;86.47
74627;BME280;63132;52.268;5.192;2022-11-20T11:25:36;100844.88;;;0.62;87.53
74627;BME280;63132;52.268;5.192;2022-11-20T11:30:44;100834.81;;;0.87;86.22
74627;BME280;63132;52.268;5.192;2022-11-20T11:33:18;100830.28;;;1.03;86.23
74627;BME280;63132;52.268;5.192;2022-11-20T11:35:52;100826.38;;;0.80;86.53
74627;BME280;63132;52.268;5.192;2022-11-20T11:38:22;100818.94;;;0.56;88.44
74627;BME280;63132;52.268;5.192;2022-11-20T11:40:55;100812.78;;;0.92;86.47
74627;BME280;63132;52.268;5.192;2022-11-20T11:43:26;100803.13;;;0.95;87.93
74627;BME280;63132;52.268;5.192;2022-11-20T11:46:29;100801.22;;;1.07;87.05
74627;BME280;63132;52.268;5.192;2022-11-20T11:49:18;100799.13;;;0.80;87.98
74627;BME280;63132;52.268;5.192;2022-11-20T11:54:26;100777.56;;;0.75;89.26
74627;BME280;63132;52.268;5.192;2022-11-20T11:56:54;100788.56;;;0.78;89.30
74627;BME280;63132;52.268;5.192;2022-11-20T12:00:14;100777.22;;;1.01;88.14
74627;BME280;63132;52.268;5.192;2022-11-20T12:04:54;100766.47;;;1.04;90.13
74627;BME280;63132;52.268;5.192;2022-11-20T12:07:35;100764.28;;;0.98;90.21
74627;BME280;63132;52.268;5.192;2022-11-20T12:10:04;100755.06;;;0.78;93.04
74627;BME280;63132;52.268;5.192;2022-11-20T12:12:40;100761.22;;;0.99;91.61
74627;BME280;63132;52.268;5.192;2022-11-20T12:15:14;100760.41;;;0.87;92.46
74627;BME280;63132;52.268;5.192;2022-11-20T12:17:41;100758.38;;;0.83;92.27
74627;BME280;63132;52.268;5.192;2022-11-20T12:20:13;100752.81;;;0.92;92.31
74627;BME280;63132;52.268;5.192;2022-11-20T12:22:48;100749.53;;;0.99;92.71
74627;BME280;63132;52.268;5.192;2022-11-20T12:30:19;100741.00;;;1.00;94.63
74627;BME280;63132;52.268;5.192;2022-11-20T12:33:18;100747.25;;;1.01;93.44
74627;BME280;63132;52.268;5.192;2022-11-20T12:39:02;100728.75;;;0.82;96.51
74627;BME280;63132;52.268;5.192;2022-11-20T12:53:01;100693.69;;;1.33;94.70
74627;BME280;63132;52.268;5.192;2022-11-20T12:56:15;100680.75;;;1.18;96.09
74627;BME280;63132;52.268;5.192;2022-11-20T12:59:06;100663.84;;;1.52;95.40
74627;BME280;63132;52.268;5.192;2022-11-20T13:01:47;100647.00;;;1.10;96.71
74627;BME280;63132;52.268;5.192;2022-11-20T13:04:30;100645.44;;;1.09;97.85
74627;BME280;63132;52.268;5.192;2022-11-20T13:07:01;100639.50;;;1.19;97.11
74627;BME280;63132;52.268;5.192;2022-11-20T13:09:28;100634.75;;;1.04;97.49
74627;BME280;63132;52.268;5.192;2022-11-20T13:14:42;100631.91;;;1.13;97.61
74627;BME280;63132;52.268;5.192;2022-11-20T13:17:21;100632.25;;;1.11;97.51
74627;BME280;63132;52.268;5.192;2022-11-20T13:19:53;100631.00;;;1.08;98.15
74627;BME280;63132;52.268;5.192;2022-11-20T13:22:27;100631.94;;;1.00;99.23
74627;BME280;63132;52.268;5.192;2022-11-20T13:24:53;100626.91;;;1.15;99.35
74627;BME280;63132;52.268;5.192;2022-11-20T13:27:21;100618.44;;;0.92;99.38
74627;BME280;63132;52.268;5.192;2022-11-20T13:30:24;100612.34;;;1.10;99.24
74627;BME280;63132;52.268;5.192;2022-11-20T13:32:57;100610.53;;;1.15;99.92
74627;BME280;63132;52.268;5.192;2022-11-20T13:35:31;100619.50;;;1.27;99.31
74627;BME280;63132;52.268;5.192;2022-11-20T13:38:02;100619.72;;;1.22;98.90
74627;BME280;63132;52.268;5.192;2022-11-20T13:40:30;100619.41;;;1.11;98.92
74627;BME280;63132;52.268;5.192;2022-11-20T13:45:40;100607.13;;;1.46;99.36
74627;BME280;63132;52.268;5.192;2022-11-20T13:48:19;100597.03;;;1.34;98.91
74627;BME280;63132;52.268;5.192;2022-11-20T13:53:31;100590.13;;;1.36;98.50
74627;BME280;63132;52.268;5.192;2022-11-20T13:56:01;100589.91;;;1.29;99.25
74627;BME280;63132;52.268;5.192;2022-11-20T14:01:17;100570.63;;;1.22;99.70
74627;BME280;63132;52.268;5.192;2022-11-20T14:03:46;100572.25;;;1.39;98.63
74627;BME280;63132;52.268;5.192;2022-11-20T14:06:21;100571.28;;;1.31;97.98
74627;BME280;63132;52.268;5.192;2022-11-20T14:08:51;100571.41;;;1.23;99.34
74627;BME280;63132;52.268;5.192;2022-11-20T14:14:16;100552.72;;;1.37;100.00
74627;BME280;63132;52.268;5.192;2022-11-20T14:16:42;100547.69;;;1.39;99.11
74627;BME280;63132;52.268;5.192;2022-11-20T14:24:13;100516.91;;;1.38;99.58
74627;BME280;63132;52.268;5.192;2022-11-20T14:26:44;100499.94;;;1.45;99.57
74627;BME280;63132;52.268;5.192;2022-11-20T14:29:29;100502.53;;;1.26;99.69